Wetterdaten: Woche 17.04.23 - 23.04.23 (KW16)
Datum Zeit Temp. Aussen Temp. o. S. Temp +5cm Feuchte Auss Luftdruck Regen Sonnenschein Regendauer Solar Windben Empfang
17.04.2023 00:00 9,5 C 8,9 C 5,6 C 95 % 1025,0 hPa 0,0 l/m 0,00 h 0,00 h 0 W/m 11,4 km/h (2 Bft) 98,91 %
17.04.2023 01:00 9,6 C 8,9 C 5,6 C 96 % 1024,9 hPa 0,0 l/m 0,00 h 0,00 h 0 W/m 11,8 km/h (2 Bft) 95,38 %
17.04.2023 02:00 9,6 C 8,9 C 5,6 C 96 % 1024,8 hPa 0,0 l/m 0,00 h 0,00 h 0 W/m 9,2 km/h (2 Bft) 98,94 %
17.04.2023 03:00 9,4 C 8,9 C 5,6 C 96 % 1024,7 hPa 0,0 l/m 0,00 h 0,00 h 0 W/m 12,0 km/h (2 Bft) 98,36 %
17.04.2023 04:00 9,2 C 8,4 C 5,6 C 96 % 1024,8 hPa 0,0 l/m 0,00 h 0,00 h 0 W/m 9,2 km/h (2 Bft) 94,87 %
17.04.2023 05:00 9,1 C 8,3 C 5,1 C 96 % 1024,9 hPa 0,0 l/m 0,00 h 0,00 h 0 W/m 11,1 km/h (2 Bft) 99,08 %
17.04.2023 06:00 8,9 C 8,3 C 5,0 C 96 % 1025,0 hPa 0,0 l/m 0,00 h 0,00 h 5 W/m 10,4 km/h (2 Bft) 95,89 %
17.04.2023 07:00 8,8 C 8,3 C 5,3 C 97 % 1025,4 hPa 0,0 l/m 0,00 h 0,00 h 19 W/m 10,2 km/h (2 Bft) 95,60 %
17.04.2023 08:00 9,0 C 8,7 C 5,6 C 96 % 1025,6 hPa 0,0 l/m 0,00 h 0,00 h 55 W/m 10,4 km/h (2 Bft) 98,31 %
17.04.2023 09:00 9,4 C 9,4 C 6,2 C 96 % 1026,1 hPa 0,0 l/m 0,00 h 0,00 h 97 W/m 11,5 km/h (2 Bft) 96,80 %
17.04.2023 10:00 10,2 C 10,8 C 7,2 C 92 % 1026,4 hPa 0,0 l/m 0,07 h 0,00 h 168 W/m 15,5 km/h (3 Bft) 96,79 %
17.04.2023 11:00 11,4 C 12,6 C 8,5 C 87 % 1026,6 hPa 0,0 l/m 0,17 h 0,00 h 270 W/m 12,9 km/h (3 Bft) 99,50 %
17.04.2023 12:00 13,4 C 17,9 C 11,6 C 79 % 1026,4 hPa 0,0 l/m 0,83 h 0,00 h 542 W/m 16,9 km/h (3 Bft) 95,37 %
17.04.2023 13:00 16,0 C 24,4 C 12,5 C 65 % 1026,1 hPa 0,0 l/m 1,00 h 0,00 h 817 W/m 15,9 km/h (3 Bft) 96,75 %
17.04.2023 14:00 16,6 C 21,7 C 12,5 C 60 % 1026,0 hPa 0,0 l/m 1,00 h 0,00 h 621 W/m 17,2 km/h (3 Bft) 98,72 %
17.04.2023 15:00 17,1 C 23,7 C 13,0 C 56 % 1025,7 hPa 0,0 l/m 1,00 h 0,00 h 758 W/m 17,2 km/h (3 Bft) 97,73 %
17.04.2023 16:00 17,2 C 20,6 C 13,1 C 55 % 1025,5 hPa 0,0 l/m 0,73 h 0,00 h 482 W/m 18,7 km/h (3 Bft) 96,92 %
17.04.2023 17:00 16,2 C 18,4 C 12,3 C 54 % 1025,2 hPa 0,0 l/m 0,53 h 0,00 h 303 W/m 18,0 km/h (3 Bft) 98,86 %
17.04.2023 18:00 15,7 C 16,5 C 11,5 C 55 % 1025,1 hPa 0,0 l/m 0,40 h 0,00 h 177 W/m 12,5 km/h (3 Bft) 96,49 %
17.04.2023 19:00 14,4 C 13,8 C 9,9 C 58 % 1025,1 hPa 0,0 l/m 0,00 h 0,00 h 43 W/m 7,7 km/h (2 Bft) 96,87 %
17.04.2023 20:00 13,4 C 12,0 C 8,3 C 61 % 1025,2 hPa 0,0 l/m 0,00 h 0,00 h 13 W/m 0,2 km/h (0 Bft) 97,16 %
17.04.2023 21:00 12,3 C 10,8 C 6,7 C 67 % 1025,4 hPa 0,0 l/m 0,00 h 0,00 h 0 W/m 1,3 km/h (1 Bft) 95,79 %
17.04.2023 22:00 11,3 C 10,4 C 6,1 C 70 % 1025,3 hPa 0,0 l/m 0,00 h 0,00 h 0 W/m 2,6 km/h (1 Bft) 97,76 %
17.04.2023 23:00 10,9 C 10,1 C 6,4 C 72 % 1025,3 hPa 0,0 l/m 0,00 h 0,00 h 0 W/m 6,9 km/h (2 Bft) 96,74 %
18.04.2023 00:00 10,5 C 9,6 C 6,0 C 72 % 1025,4 hPa 0,0 l/m 0,00 h 0,00 h 0 W/m 10,2 km/h (2 Bft) 98,49 %
18.04.2023 01:00 9,8 C 8,8 C 5,2 C 69 % 1025,5 hPa 0,0 l/m 0,00 h 0,00 h 0 W/m 9,3 km/h (2 Bft) 95,57 %
18.04.2023 02:00 8,8 C 7,7 C 4,3 C 72 % 1025,4 hPa 0,0 l/m 0,00 h 0,00 h 0 W/m 10,4 km/h (2 Bft) 99,00 %
18.04.2023 03:00 8,0 C 6,9 C 3,5 C 79 % 1025,1 hPa 0,0 l/m 0,00 h 0,00 h 0 W/m 15,2 km/h (3 Bft) 97,17 %
18.04.2023 04:00 7,1 C 6,1 C 2,6 C 83 % 1024,9 hPa 0,0 l/m 0,00 h 0,00 h 0 W/m 13,0 km/h (3 Bft) 96,92 %
18.04.2023 05:00 6,4 C 5,5 C 2,1 C 85 % 1024,9 hPa 0,0 l/m 0,00 h 0,00 h 0 W/m 12,8 km/h (3 Bft) 96,77 %
18.04.2023 06:00 5,9 C 5,0 C 1,7 C 87 % 1025,1 hPa 0,0 l/m 0,00 h 0,00 h 8 W/m 10,3 km/h (2 Bft) 96,64 %
18.04.2023 07:00 5,8 C 5,5 C 2,0 C 89 % 1025,7 hPa 0,0 l/m 0,00 h 0,00 h 25 W/m 7,6 km/h (2 Bft) 94,67 %
18.04.2023 08:00 7,3 C 7,9 C 3,7 C 87 % 1026,2 hPa 0,0 l/m 0,40 h 0,00 h 136 W/m 10,8 km/h (2 Bft) 97,23 %
18.04.2023 09:00 10,0 C 16,9 C 5,9 C 78 % 1026,3 hPa 0,0 l/m 0,77 h 0,00 h 318 W/m 15,7 km/h (3 Bft) 98,72 %
18.04.2023 10:00 10,2 C 12,0 C 6,3 C 78 % 1026,6 hPa 0,0 l/m 0,27 h 0,00 h 263 W/m 18,5 km/h (3 Bft) 97,07 %
18.04.2023 11:00 10,3 C 11,5 C 6,8 C 79 % 1026,7 hPa 0,0 l/m 0,00 h 0,00 h 268 W/m 17,6 km/h (3 Bft) 98,65 %
18.04.2023 12:00 11,6 C 15,6 C 9,1 C 77 % 1026,5 hPa 0,0 l/m 0,53 h 0,00 h 468 W/m 19,0 km/h (3 Bft) 97,42 %
18.04.2023 13:00 11,3 C 13,1 C 7,9 C 78 % 1026,3 hPa 0,0 l/m 0,17 h 0,00 h 346 W/m 18,3 km/h (3 Bft) 96,33 %
18.04.2023 14:00 12,1 C 12,9 C 8,3 C 76 % 1026,1 hPa 0,0 l/m 0,00 h 0,00 h 203 W/m 17,9 km/h (3 Bft) 97,28 %
18.04.2023 15:00 14,1 C 18,8 C 10,4 C 73 % 1025,9 hPa 0,0 l/m 0,63 h 0,00 h 613 W/m 21,1 km/h (4 Bft) 97,73 %
18.04.2023 16:00 15,0 C 19,2 C 11,3 C 69 % 1025,6 hPa 0,0 l/m 0,93 h 0,00 h 557 W/m 21,1 km/h (4 Bft) 96,33 %
18.04.2023 17:00 15,4 C 19,4 C 12,1 C 67 % 1025,3 hPa 0,0 l/m 1,00 h 0,00 h 446 W/m 21,8 km/h (4 Bft) 98,07 %
18.04.2023 18:00 14,9 C 17,2 C 11,3 C 68 % 1025,2 hPa 0,0 l/m 0,80 h 0,00 h 222 W/m 19,0 km/h (3 Bft) 97,82 %
18.04.2023 19:00 13,5 C 12,9 C 9,1 C 72 % 1025,4 hPa 0,0 l/m 0,00 h 0,00 h 46 W/m 14,4 km/h (3 Bft) 96,00 %
18.04.2023 20:00 12,2 C 11,2 C 7,7 C 76 % 1025,7 hPa 0,0 l/m 0,00 h 0,00 h 13 W/m 13,9 km/h (3 Bft) 98,57 %
18.04.2023 21:00 11,1 C 10,4 C 6,8 C 79 % 1026,1 hPa 0,0 l/m 0,00 h 0,00 h 0 W/m 12,4 km/h (3 Bft) 96,74 %
18.04.2023 22:00 10,6 C 10,0 C 6,3 C 81 % 1026,4 hPa 0,0 l/m 0,00 h 0,00 h 0 W/m 14,9 km/h (3 Bft) 94,75 %
18.04.2023 23:00 10,4 C 9,8 C 6,3 C 81 % 1026,6 hPa 0,0 l/m 0,00 h 0,00 h 0 W/m 15,2 km/h (3 Bft) 97,38 %
19.04.2023 00:00 10,6 C 10,0 C 6,5 C 80 % 1026,7 hPa 0,0 l/m 0,00 h 0,00 h 0 W/m 14,7 km/h (3 Bft) 98,05 %
19.04.2023 01:00 10,6 C 10,0 C 6,2 C 81 % 1026,7 hPa 0,0 l/m 0,00 h 0,00 h 0 W/m 11,8 km/h (2 Bft) 96,09 %
19.04.2023 02:00 10,5 C 10,0 C 6,1 C 83 % 1026,6 hPa 0,0 l/m 0,00 h 0,00 h 0 W/m 11,9 km/h (2 Bft) 98,28 %
19.04.2023 03:00 10,4 C 10,0 C 6,1 C 85 % 1026,3 hPa 0,0 l/m 0,00 h 0,00 h 0 W/m 11,2 km/h (2 Bft) 98,59 %
19.04.2023 04:00 10,5 C 9,9 C 6,1 C 87 % 1026,1 hPa 0,0 l/m 0,00 h 0,00 h 0 W/m 12,5 km/h (3 Bft) 95,71 %
19.04.2023 05:00 10,2 C 9,4 C 6,0 C 87 % 1026,0 hPa 0,0 l/m 0,00 h 0,00 h 0 W/m 10,6 km/h (2 Bft) 97,33 %
19.04.2023 06:00 10,1 C 9,4 C 6,1 C 86 % 1025,8 hPa 0,0 l/m 0,00 h 0,00 h 5 W/m 8,0 km/h (2 Bft) 96,84 %
19.04.2023 07:00 10,0 C 9,5 C 5,9 C 81 % 1025,8 hPa 0,0 l/m 0,00 h 0,00 h 42 W/m 16,5 km/h (3 Bft) 97,25 %
19.04.2023 08:00 10,1 C 10,0 C 5,9 C 77 % 1025,9 hPa 0,0 l/m 0,27 h 0,00 h 127 W/m 17,8 km/h (3 Bft) 98,36 %
19.04.2023 09:00 11,3 C 16,9 C 7,0 C 70 % 1025,9 hPa 0,0 l/m 0,73 h 0,00 h 308 W/m 20,8 km/h (4 Bft) 96,88 %
19.04.2023 10:00 12,9 C 17,0 C 8,6 C 62 % 1025,8 hPa 0,0 l/m 0,30 h 0,00 h 253 W/m 19,7 km/h (3 Bft) 94,95 %
19.04.2023 11:00 13,5 C 16,9 C 9,9 C 57 % 1025,6 hPa 0,0 l/m 1,00 h 0,00 h 718 W/m 23,0 km/h (4 Bft) 98,23 %
19.04.2023 12:00 14,3 C 22,4 C 12,8 C 50 % 1025,2 hPa 0,0 l/m 1,00 h 0,00 h 808 W/m 25,8 km/h (4 Bft) 97,80 %
19.04.2023 13:00 14,6 C 21,1 C 10,9 C 49 % 1024,8 hPa 0,0 l/m 1,00 h 0,00 h 725 W/m 23,5 km/h (4 Bft) 98,15 %
19.04.2023 14:00 15,5 C 22,5 C 11,2 C 48 % 1024,2 hPa 0,0 l/m 1,00 h 0,00 h 813 W/m 23,3 km/h (4 Bft) 97,91 %
19.04.2023 15:00 16,0 C 22,5 C 11,9 C 45 % 1023,5 hPa 0,0 l/m 1,00 h 0,00 h 765 W/m 23,8 km/h (4 Bft) 95,73 %
19.04.2023 16:00 15,9 C 20,7 C 12,3 C 45 % 1023,0 hPa 0,0 l/m 1,00 h 0,00 h 639 W/m 22,5 km/h (4 Bft) 95,26 %
19.04.2023 17:00 15,8 C 20,6 C 13,0 C 43 % 1022,3 hPa 0,0 l/m 1,00 h 0,00 h 483 W/m 21,8 km/h (4 Bft) 98,80 %
19.04.2023 18:00 15,1 C 18,3 C 11,9 C 45 % 1022,0 hPa 0,0 l/m 0,80 h 0,00 h 253 W/m 18,4 km/h (3 Bft) 95,66 %
19.04.2023 19:00 13,3 C 12,8 C 9,0 C 45 % 1021,9 hPa 0,0 l/m 0,00 h 0,00 h 37 W/m 20,2 km/h (4 Bft) 98,08 %
19.04.2023 20:00 11,9 C 11,1 C 7,4 C 48 % 1022,1 hPa 0,0 l/m 0,00 h 0,00 h 13 W/m 17,0 km/h (3 Bft) 96,80 %
19.04.2023 21:00 10,8 C 10,0 C 6,5 C 51 % 1022,6 hPa 0,0 l/m 0,00 h 0,00 h 0 W/m 14,9 km/h (3 Bft) 98,40 %
19.04.2023 22:00 9,7 C 8,8 C 5,3 C 56 % 1022,9 hPa 0,0 l/m 0,00 h 0,00 h 0 W/m 8,8 km/h (2 Bft) 95,38 %
19.04.2023 23:00 9,0 C 8,2 C 4,6 C 59 % 1022,8 hPa 0,0 l/m 0,00 h 0,00 h 0 W/m 12,7 km/h (3 Bft) 98,31 %
20.04.2023 00:00 8,6 C 7,7 C 4,3 C 59 % 1022,6 hPa 0,0 l/m 0,00 h 0,00 h 0 W/m 11,0 km/h (2 Bft) 94,57 %
20.04.2023 01:00 8,0 C 7,2 C 3,7 C 58 % 1021,9 hPa 0,0 l/m 0,00 h 0,00 h 0 W/m 10,6 km/h (2 Bft) 96,80 %
20.04.2023 02:00 7,8 C 7,1 C 3,4 C 57 % 1021,1 hPa 0,0 l/m 0,00 h 0,00 h 0 W/m 13,7 km/h (3 Bft) 97,78 %
20.04.2023 03:00 7,3 C 6,4 C 3,0 C 58 % 1020,2 hPa 0,0 l/m 0,00 h 0,00 h 0 W/m 16,5 km/h (3 Bft) 97,69 %
20.04.2023 04:00 7,0 C 6,3 C 2,8 C 61 % 1019,6 hPa 0,0 l/m 0,00 h 0,00 h 0 W/m 11,9 km/h (2 Bft) 96,94 %
20.04.2023 05:00 6,9 C 6,1 C 2,8 C 63 % 1019,1 hPa 0,0 l/m 0,00 h 0,00 h 0 W/m 13,3 km/h (3 Bft) 96,42 %
20.04.2023 06:00 6,7 C 6,0 C 2,5 C 67 % 1018,6 hPa 0,0 l/m 0,00 h 0,03 h 11 W/m 10,8 km/h (2 Bft) 96,65 %
20.04.2023 07:00 6,7 C 6,1 C 2,8 C 70 % 1018,5 hPa 0,0 l/m 0,00 h 0,00 h 17 W/m 8,8 km/h (2 Bft) 96,72 %
20.04.2023 08:00 7,3 C 7,1 C 3,2 C 75 % 1018,3 hPa 0,0 l/m 0,00 h 0,00 h 63 W/m 13,3 km/h (3 Bft) 96,37 %
20.04.2023 09:00 7,3 C 7,0 C 3,2 C 79 % 1018,3 hPa 0,0 l/m 0,00 h 0,00 h 76 W/m 18,7 km/h (3 Bft) 98,37 %
20.04.2023 10:00 7,4 C 7,7 C 3,6 C 81 % 1018,1 hPa 0,0 l/m 0,00 h 0,00 h 154 W/m 19,0 km/h (3 Bft) 96,23 %
20.04.2023 11:00 7,8 C 7,9 C 3,9 C 80 % 1017,9 hPa 0,0 l/m 0,00 h 0,10 h 123 W/m 17,3 km/h (3 Bft) 98,29 %
20.04.2023 12:00 8,7 C 11,1 C 5,7 C 81 % 1017,4 hPa 0,0 l/m 0,50 h 0,13 h 382 W/m 18,3 km/h (3 Bft) 96,81 %
20.04.2023 13:00 10,6 C 15,0 C 7,3 C 73 % 1016,9 hPa 0,0 l/m 0,63 h 0,07 h 559 W/m 18,6 km/h (3 Bft) 97,72 %
20.04.2023 14:00 10,4 C 12,1 C 6,7 C 72 % 1016,8 hPa 0,0 l/m 0,17 h 0,13 h 256 W/m 15,6 km/h (3 Bft) 97,32 %
20.04.2023 15:00 11,7 C 13,1 C 7,9 C 65 % 1016,6 hPa 0,0 l/m 0,03 h 0,00 h 234 W/m 14,2 km/h (3 Bft) 98,72 %
20.04.2023 16:00 12,5 C 16,8 C 9,1 C 61 % 1016,2 hPa 0,0 l/m 0,57 h 0,00 h 457 W/m 16,5 km/h (3 Bft) 96,32 %
20.04.2023 17:00 12,7 C 15,3 C 9,2 C 59 % 1016,0 hPa 0,0 l/m 0,37 h 0,00 h 281 W/m 18,0 km/h (3 Bft) 98,26 %
20.04.2023 18:00 12,5 C 15,7 C 9,3 C 59 % 1015,8 hPa 0,0 l/m 0,83 h 0,00 h 264 W/m 19,2 km/h (3 Bft) 96,61 %
20.04.2023 19:00 11,3 C 10,9 C 7,0 C 61 % 1016,0 hPa 0,0 l/m 0,13 h 0,00 h 53 W/m 15,6 km/h (3 Bft) 98,42 %
20.04.2023 20:00 10,2 C 9,5 C 6,0 C 69 % 1016,6 hPa 0,0 l/m 0,47 h 0,00 h 24 W/m 21,4 km/h (4 Bft) 94,90 %
20.04.2023 21:00 8,9 C 8,1 C 4,6 C 77 % 1016,8 hPa 0,0 l/m 0,00 h 0,00 h 0 W/m 10,8 km/h (2 Bft) 99,00 %
20.04.2023 22:00 8,4 C 7,7 C 4,0 C 83 % 1016,3 hPa 0,2 l/m 0,00 h 0,77 h 0 W/m 12,9 km/h (3 Bft) 97,27 %
20.04.2023 23:00 7,9 C 6,9 C 2,9 C 89 % 1016,5 hPa 1,8 l/m 0,00 h 1,00 h 0 W/m 10,2 km/h (2 Bft) 96,01 %
21.04.2023 00:00 7,4 C 6,5 C 2,8 C 93 % 1016,0 hPa 1,6 l/m 0,00 h 1,00 h 0 W/m 5,1 km/h (1 Bft) 97,60 %
21.04.2023 01:00 7,3 C 6,1 C 2,8 C 95 % 1015,4 hPa 1,4 l/m 0,00 h 1,00 h 0 W/m 6,6 km/h (2 Bft) 97,81 %
21.04.2023 02:00 7,2 C 6,1 C 2,8 C 96 % 1014,9 hPa 2,0 l/m 0,00 h 1,00 h 0 W/m 7,6 km/h (2 Bft) 95,86 %
21.04.2023 03:00 7,2 C 6,1 C 2,8 C 96 % 1014,4 hPa 0,0 l/m 0,00 h 0,07 h 0 W/m 8,5 km/h (2 Bft) 96,86 %
21.04.2023 04:00 7,2 C 6,2 C 2,8 C 97 % 1014,2 hPa 0,0 l/m 0,00 h 0,00 h 0 W/m 3,3 km/h (1 Bft) 97,87 %
21.04.2023 05:00 6,8 C 5,6 C 2,4 C 97 % 1014,2 hPa 0,0 l/m 0,00 h 0,00 h 0 W/m 0,0 km/h (0 Bft) 94,98 %
21.04.2023 06:00 6,2 C 5,0 C 2,1 C 97 % 1014,2 hPa 0,0 l/m 0,00 h 0,00 h 12 W/m 0,0 km/h (0 Bft) 98,33 %
21.04.2023 07:00 6,5 C 6,1 C 2,6 C 97 % 1014,3 hPa 0,0 l/m 0,00 h 0,00 h 54 W/m 0,0 km/h (0 Bft) 97,50 %
21.04.2023 08:00 7,3 C 7,3 C 3,3 C 98 % 1014,4 hPa 0,0 l/m 0,00 h 0,00 h 83 W/m 0,0 km/h (0 Bft) 96,06 %
21.04.2023 09:00 8,4 C 10,3 C 4,4 C 98 % 1014,3 hPa 0,0 l/m 0,03 h 0,00 h 176 W/m 1,9 km/h (1 Bft) 98,49 %
21.04.2023 10:00 9,5 C 11,6 C 5,2 C 98 % 1014,3 hPa 0,0 l/m 0,37 h 0,00 h 277 W/m 8,4 km/h (2 Bft) 98,07 %
21.04.2023 11:00 11,3 C 14,5 C 7,2 C 91 % 1014,2 hPa 0,0 l/m 0,53 h 0,00 h 404 W/m 9,3 km/h (2 Bft) 95,32 %
21.04.2023 12:00 14,0 C 19,6 C 12,7 C 82 % 1013,7 hPa 0,0 l/m 0,57 h 0,00 h 622 W/m 12,3 km/h (3 Bft) 99,41 %
21.04.2023 13:00 15,5 C 20,5 C 12,0 C 78 % 1012,7 hPa 0,0 l/m 0,70 h 0,00 h 557 W/m 13,4 km/h (3 Bft) 97,84 %
21.04.2023 14:00 16,6 C 21,4 C 12,8 C 76 % 1011,9 hPa 0,0 l/m 0,63 h 0,00 h 604 W/m 16,4 km/h (3 Bft) 97,30 %
21.04.2023 15:00 18,5 C 23,7 C 14,4 C 67 % 1011,1 hPa 0,0 l/m 0,90 h 0,00 h 710 W/m 17,4 km/h (3 Bft) 96,16 %
21.04.2023 16:00 18,7 C 21,9 C 14,7 C 64 % 1010,4 hPa 0,0 l/m 0,90 h 0,00 h 526 W/m 18,0 km/h (3 Bft) 98,29 %
21.04.2023 17:00 19,2 C 22,2 C 15,5 C 60 % 1009,7 hPa 0,0 l/m 0,97 h 0,00 h 461 W/m 16,3 km/h (3 Bft) 97,41 %
21.04.2023 18:00 17,3 C 16,6 C 12,6 C 61 % 1009,5 hPa 0,0 l/m 0,15 h 0,00 h 88 W/m 16,9 km/h (3 Bft) 98,07 %
21.04.2023 19:00 15,0 C 14,5 C 10,6 C 65 % 1009,0 hPa 0,0 l/m 0,00 h 0,00 h 51 W/m 5,5 km/h (1 Bft) 96,44 %
21.04.2023 20:00 14,8 C 13,7 C 9,9 C 66 % 1008,8 hPa 0,0 l/m 0,20 h 0,00 h 20 W/m 5,0 km/h (1 Bft) 98,15 %
21.04.2023 21:00 13,1 C 10,8 C 7,5 C 79 % 1009,9 hPa 3,2 l/m 0,00 h 0,60 h 0 W/m 14,7 km/h (3 Bft) 98,15 %
21.04.2023 22:00 11,3 C 9,9 C 6,1 C 89 % 1009,3 hPa 0,0 l/m 0,00 h 0,00 h 0 W/m 7,3 km/h (2 Bft) 96,53 %
21.04.2023 23:00 10,8 C 9,2 C 5,9 C 92 % 1009,4 hPa 0,2 l/m 0,00 h 0,00 h 0 W/m 2,4 km/h (1 Bft) 97,82 %
22.04.2023 00:00 10,0 C 8,4 C 5,1 C 93 % 1009,2 hPa 0,0 l/m 0,00 h 0,00 h 0 W/m 2,0 km/h (1 Bft) 98,65 %
22.04.2023 01:00 8,9 C 7,2 C 4,0 C 94 % 1009,1 hPa 0,0 l/m 0,00 h 0,00 h 0 W/m 0,4 km/h (0 Bft) 97,00 %
22.04.2023 02:00 8,3 C 7,2 C 4,1 C 95 % 1009,0 hPa 0,0 l/m 0,00 h 0,00 h 0 W/m 1,4 km/h (1 Bft) 96,18 %
22.04.2023 03:00 8,5 C 7,4 C 4,4 C 96 % 1008,7 hPa 0,0 l/m 0,00 h 0,00 h 0 W/m 0,7 km/h (0 Bft) 98,22 %
22.04.2023 04:00 8,7 C 8,0 C 4,8 C 97 % 1008,6 hPa 0,0 l/m 0,00 h 0,00 h 0 W/m 5,1 km/h (1 Bft) 97,79 %
22.04.2023 05:00 8,9 C 8,3 C 5,0 C 97 % 1008,1 hPa 0,0 l/m 0,00 h 0,00 h 0 W/m 5,0 km/h (1 Bft) 95,97 %
22.04.2023 06:00 8,9 C 8,3 C 5,0 C 97 % 1007,7 hPa 0,0 l/m 0,00 h 0,00 h 8 W/m 3,9 km/h (1 Bft) 98,80 %
22.04.2023 07:00 9,3 C 9,3 C 5,5 C 97 % 1007,5 hPa 0,0 l/m 0,00 h 0,00 h 41 W/m 4,6 km/h (1 Bft) 96,27 %
22.04.2023 08:00 10,3 C 11,1 C 6,8 C 97 % 1007,5 hPa 0,0 l/m 0,33 h 0,00 h 145 W/m 7,7 km/h (2 Bft) 97,01 %
22.04.2023 09:00 13,4 C 18,7 C 10,7 C 90 % 1007,3 hPa 0,0 l/m 0,77 h 0,00 h 334 W/m 13,3 km/h (3 Bft) 98,58 %
22.04.2023 10:00 16,0 C 18,3 C 12,3 C 77 % 1006,8 hPa 0,0 l/m 0,77 h 0,00 h 412 W/m 15,9 km/h (3 Bft) 97,30 %
22.04.2023 11:00 18,2 C 20,1 C 14,4 C 71 % 1006,4 hPa 0,0 l/m 0,87 h 0,00 h 537 W/m 18,6 km/h (3 Bft) 96,30 %
22.04.2023 12:00 20,5 C 25,7 C 19,2 C 64 % 1006,2 hPa 0,0 l/m 1,00 h 0,00 h 716 W/m 24,0 km/h (4 Bft) 98,43 %
22.04.2023 13:00 21,7 C 25,0 C 18,1 C 61 % 1006,2 hPa 0,0 l/m 0,73 h 0,00 h 643 W/m 21,9 km/h (4 Bft) 97,66 %
22.04.2023 14:00 21,3 C 21,5 C 17,0 C 61 % 1006,1 hPa 0,0 l/m 0,23 h 0,00 h 280 W/m 24,8 km/h (4 Bft) 97,84 %
22.04.2023 15:00 19,1 C 18,1 C 12,5 C 72 % 1006,5 hPa 0,2 l/m 0,10 h 0,37 h 207 W/m 22,3 km/h (4 Bft) 96,79 %
22.04.2023 16:00 17,5 C 16,5 C 10,7 C 81 % 1006,8 hPa 0,4 l/m 0,00 h 0,37 h 105 W/m 11,6 km/h (2 Bft) 97,46 %
22.04.2023 17:00 16,8 C 16,0 C 10,6 C 84 % 1006,7 hPa 0,0 l/m 0,00 h 0,10 h 40 W/m 7,7 km/h (2 Bft) 98,01 %
22.04.2023 18:00 15,9 C 14,2 C 9,8 C 87 % 1006,9 hPa 1,8 l/m 0,00 h 0,93 h 22 W/m 16,9 km/h (3 Bft) 98,19 %
22.04.2023 19:00 14,6 C 13,3 C 9,4 C 92 % 1007,0 hPa 0,6 l/m 0,00 h 0,77 h 22 W/m 13,0 km/h (3 Bft) 96,76 %
22.04.2023 20:00 14,1 C 13,1 C 9,2 C 94 % 1007,3 hPa 0,2 l/m 0,00 h 0,27 h 9 W/m 8,8 km/h (2 Bft) 97,66 %
22.04.2023 21:00 13,0 C 12,2 C 8,3 C 95 % 1008,0 hPa 0,0 l/m 0,00 h 0,07 h 0 W/m 10,7 km/h (2 Bft) 96,39 %
22.04.2023 22:00 11,9 C 11,1 C 7,3 C 95 % 1008,4 hPa 0,0 l/m 0,00 h 0,00 h 0 W/m 11,4 km/h (2 Bft) 96,85 %
22.04.2023 23:00 11,3 C 10,4 C 6,7 C 95 % 1008,7 hPa 0,0 l/m 0,00 h 0,00 h 0 W/m 3,5 km/h (1 Bft) 96,90 %
23.04.2023 00:00 10,5 C 9,4 C 6,0 C 95 % 1009,0 hPa 0,0 l/m 0,00 h 0,00 h 0 W/m 0,0 km/h (0 Bft) 99,31 %
23.04.2023 01:00 9,9 C 8,7 C 5,6 C 95 % 1008,9 hPa 0,0 l/m 0,00 h 0,00 h 0 W/m 0,0 km/h (0 Bft) 95,73 %
23.04.2023 02:00 9,5 C 8,3 C 5,3 C 95 % 1008,7 hPa 0,0 l/m 0,00 h 0,00 h 0 W/m 0,0 km/h (0 Bft) 98,15 %
23.04.2023 03:00 9,3 C 8,2 C 5,2 C 96 % 1008,2 hPa 0,0 l/m 0,00 h 0,00 h 0 W/m 0,0 km/h (0 Bft) 96,46 %
23.04.2023 04:00 8,9 C 8,1 C 5,1 C 96 % 1008,1 hPa 0,0 l/m 0,00 h 0,00 h 0 W/m 0,0 km/h (0 Bft) 96,67 %
23.04.2023 05:00 9,1 C 8,3 C 5,6 C 97 % 1007,8 hPa 0,2 l/m 0,00 h 0,00 h 0 W/m 7,3 km/h (2 Bft) 97,29 %
23.04.2023 06:00 9,2 C 8,4 C 5,6 C 97 % 1007,7 hPa 0,0 l/m 0,00 h 0,00 h 14 W/m 9,2 km/h (2 Bft) 96,83 %
23.04.2023 07:00 9,5 C 9,1 C 6,2 C 97 % 1007,8 hPa 0,0 l/m 0,00 h 0,00 h 27 W/m 7,2 km/h (2 Bft) 98,91 %
23.04.2023 08:00 10,2 C 10,8 C 7,3 C 98 % 1007,8 hPa 0,0 l/m 0,20 h 0,00 h 118 W/m 7,1 km/h (2 Bft) 95,29 %
23.04.2023 09:00 12,6 C 18,9 C 9,9 C 95 % 1007,3 hPa 0,0 l/m 0,63 h 0,00 h 330 W/m 12,6 km/h (3 Bft) 98,50 %
23.04.2023 10:00 15,4 C 18,1 C 11,6 C 79 % 1007,0 hPa 0,0 l/m 0,53 h 0,00 h 392 W/m 20,5 km/h (4 Bft) 96,77 %
23.04.2023 11:00 17,0 C 19,3 C 13,7 C 72 % 1006,7 hPa 0,0 l/m 0,90 h 0,00 h 580 W/m 21,7 km/h (4 Bft) 98,01 %
23.04.2023 12:00 18,3 C 20,7 C 15,6 C 62 % 1006,2 hPa 0,0 l/m 0,58 h 0,00 h 518 W/m 21,2 km/h (4 Bft) 97,63 %
23.04.2023 13:00 18,0 C 18,9 C 14,3 C 61 % 1005,6 hPa 0,0 l/m 0,57 h 0,00 h 399 W/m 25,6 km/h (4 Bft) 96,17 %
23.04.2023 14:00 18,6 C 21,1 C 14,6 C 59 % 1004,8 hPa 0,0 l/m 0,63 h 0,00 h 544 W/m 24,6 km/h (4 Bft) 98,00 %
23.04.2023 15:00 19,0 C 20,0 C 14,5 C 57 % 1004,0 hPa 0,0 l/m 0,77 h 0,00 h 396 W/m 20,8 km/h (4 Bft) 99,15 %
23.04.2023 16:00 18,2 C 17,6 C 13,5 C 59 % 1002,9 hPa 0,0 l/m 0,03 h 0,07 h 171 W/m 18,6 km/h (3 Bft) 95,31 %
23.04.2023 17:00 15,3 C 13,2 C 8,7 C 79 % 1003,0 hPa 2,6 l/m 0,00 h 0,97 h 41 W/m 11,9 km/h (2 Bft) 99,22 %
23.04.2023 18:00 13,1 C 11,8 C 7,9 C 92 % 1002,4 hPa 0,6 l/m 0,00 h 0,52 h 45 W/m 3,5 km/h (1 Bft) 95,07 %
23.04.2023 19:00 12,4 C 11,7 C 7,4 C 93 % 1001,2 hPa 0,0 l/m 0,00 h 0,00 h 27 W/m 9,1 km/h (2 Bft) 96,02 %
23.04.2023 20:00 12,1 C 11,4 C 7,2 C 94 % 1000,5 hPa 0,0 l/m 0,00 h 0,00 h 11 W/m 14,7 km/h (3 Bft) 99,01 %
23.04.2023 21:00 12,2 C 11,6 C 6,9 C 92 % 1000,8 hPa 0,2 l/m 0,00 h 0,60 h 0 W/m 24,6 km/h (4 Bft) 97,11 %
23.04.2023 22:00 11,6 C 10,4 C 6,0 C 86 % 1001,3 hPa 0,0 l/m 0,00 h 0,33 h 0 W/m 29,4 km/h (5 Bft) 95,50 %
23.04.2023 23:00 11,1 C 10,5 C 6,3 C 86 % 1001,5 hPa 0,0 l/m 0,00 h 0,00 h 0 W/m 30,9 km/h (5 Bft) 96,38 %
Min-Datum _ 18.04.23 18.04.23 18.04.23 19.04.23 23.04.23 - - - - 17.04.23 20.04.23
_ Min-Zeit 07:06 05:46 05:46 16:42 20:46 - - - - 20:02 00:02
Minimum _ 5,6 C 5,0 C 1,7 C 42 % 1000,3 hPa - - - - 0,0 km/h (0 Bft) 9,52 %
Max-Datum _ 22.04.23 22.04.23 22.04.23 21.04.23 19.04.23 21.04.23 17.04.23 23.04.23 21.04.23 21.04.23 17.04.23
_ Max-Zeit 14:02 13:26 12:44 09:24 00:20 21:30 18:12 18:12 13:56 21:30 00:00
Maximum _ 22,3 C 28,3 C 22,8 C 99 % 1026,8 hPa 3,2 l/m 0,07 h 0,07 h 1079 W/m 64,4 km/h
S-SW (8 Bft)
100,00 %
Durchschnitt _ 11,7 C 12,4 C 7,6 C 78 % 1017,0 hPa #17,2 l/m #39:38 h #11:19 h 276 W/m 12,9 km/h (3 Bft) 97,22 %
© 2023 W. Hausmann